Time;durP1;ratioP1;P1;durP2;ratioP2;P2;SDS_P1;SDS_P2;PMS_P1;PMS_P2;Temp;Humidity;BMP_temperature;BMP_pressure;BME280_temperature;BME280_humidity;BME280_pressure;Samples;Min_cycle;Max_cycle;Signal;HPM_P1;HPM_P2
2021/09/23 04:00:50;;;;;;;14.03;12.83;;;11.00;99.90;;;;;;5755064;23;20485;-69
2021/09/23 04:03:17;;;;;;;14.80;13.30;;;11.00;99.90;;;;;;4975719;28;20821;-69
2021/09/23 04:05:43;;;;;;;19.80;14.63;;;10.90;99.90;;;;;;4975677;28;20461;-69
2021/09/23 04:08:10;;;;;;;14.30;12.97;;;10.80;99.90;;;;;;4975867;28;20455;-69
2021/09/23 04:10:37;;;;;;;17.67;13.07;;;10.70;99.90;;;;;;4975620;28;20478;-69
2021/09/23 04:13:03;;;;;;;13.70;12.40;;;10.60;99.90;;;;;;4975969;28;20466;-69
2021/09/23 04:15:30;;;;;;;16.40;12.97;;;10.50;99.90;;;;;;4975818;28;20462;-69
2021/09/23 04:17:58;;;;;;;13.07;11.50;;;10.30;99.90;;;;;;4975538;28;20479;-69
2021/09/23 04:20:25;;;;;;;12.93;11.60;;;10.20;99.90;;;;;;4975624;28;20794;-69
2021/09/23 04:22:52;;;;;;;13.00;11.63;;;10.20;99.90;;;;;;4975556;28;20454;-69
2021/09/23 04:25:18;;;;;;;15.10;11.67;;;10.20;99.90;;;;;;4975362;28;20793;-68
2021/09/23 04:27:45;;;;;;;14.17;11.40;;;10.20;99.90;;;;;;4975587;28;20454;-69
2021/09/23 04:30:13;;;;;;;12.00;10.80;;;10.20;99.90;;;;;;4975675;28;20458;-69
2021/09/23 04:32:39;;;;;;;12.60;11.27;;;10.20;99.90;;;;;;4975866;28;20454;-69
2021/09/23 04:35:08;;;;;;;11.20;10.07;;;10.30;99.90;;;;;;4975307;28;20852;-68
2021/09/23 04:37:35;;;;;;;12.57;11.27;;;10.30;99.90;;;;;;4975361;28;20872;-69
2021/09/23 04:40:01;;;;;;;15.43;11.47;;;10.20;99.90;;;;;;4975688;28;20461;-68
2021/09/23 04:42:29;;;;;;;16.90;11.70;;;10.20;99.90;;;;;;4976210;28;20478;-69
2021/09/23 04:44:56;;;;;;;11.77;10.67;;;10.20;99.90;;;;;;4975349;28;20489;-68
2021/09/23 04:47:23;;;;;;;12.20;11.00;;;10.20;99.90;;;;;;4976140;28;20478;-69
2021/09/23 04:49:49;;;;;;;13.07;11.10;;;10.20;99.90;;;;;;4979210;28;20466;-69
2021/09/23 04:52:17;;;;;;;12.00;10.80;;;10.10;99.90;;;;;;4979222;28;20484;-68
2021/09/23 04:54:44;;;;;;;13.70;12.30;;;10.10;99.90;;;;;;4978871;28;20457;-67
2021/09/23 04:57:11;;;;;;;12.90;11.70;;;9.90;99.90;;;;;;4978641;28;20466;-67
2021/09/23 04:59:37;;;;;;;13.27;11.97;;;9.90;99.90;;;;;;4979274;28;20935;-68
2021/09/23 05:02:04;;;;;;;16.70;12.97;;;9.90;99.90;;;;;;4978663;28;20482;-68
2021/09/23 05:04:31;;;;;;;12.07;10.90;;;9.90;99.90;;;;;;4979249;28;20485;-68
2021/09/23 05:06:57;;;;;;;13.30;11.27;;;9.90;99.90;;;;;;4979428;28;20964;-68
2021/09/23 05:09:26;;;;;;;17.73;11.70;;;10.00;99.90;;;;;;4978857;28;20466;-68
2021/09/23 05:11:52;;;;;;;17.47;12.70;;;10.00;99.90;;;;;;4978544;28;20876;-68
2021/09/23 05:14:19;;;;;;;15.50;12.20;;;10.00;99.90;;;;;;4978862;28;20465;-68
2021/09/23 05:16:46;;;;;;;13.90;12.40;;;10.00;99.90;;;;;;4978629;28;20915;-70
2021/09/23 05:19:13;;;;;;;14.73;13.33;;;10.00;99.90;;;;;;4978641;28;20466;-69
2021/09/23 05:21:41;;;;;;;18.63;13.40;;;10.20;99.90;;;;;;4979092;28;20471;-69
2021/09/23 05:24:09;;;;;;;18.10;13.83;;;10.20;99.90;;;;;;4978794;28;20549;-69
2021/09/23 05:26:37;;;;;;;13.63;12.43;;;10.20;99.90;;;;;;4978337;28;20555;-69
2021/09/23 05:29:03;;;;;;;14.77;13.30;;;10.20;99.90;;;;;;4978460;28;20840;-69
2021/09/23 05:31:30;;;;;;;16.10;13.67;;;10.20;99.90;;;;;;4978306;28;21167;-67
2021/09/23 05:33:57;;;;;;;14.93;13.30;;;10.10;99.90;;;;;;4978677;28;20458;-69
2021/09/23 05:36:25;;;;;;;17.30;15.50;;;10.20;99.90;;;;;;4978728;28;20458;-68
2021/09/23 05:38:52;;;;;;;19.57;17.50;;;10.10;99.90;;;;;;4978450;28;20450;-69
2021/09/23 05:41:19;;;;;;;18.13;16.20;;;10.10;99.90;;;;;;4978217;28;20477;-69
2021/09/23 05:43:47;;;;;;;27.50;16.80;;;10.10;99.90;;;;;;4978612;28;20442;-69
2021/09/23 05:46:13;;;;;;;17.40;15.40;;;10.10;99.90;;;;;;4978339;28;20478;-69
2021/09/23 05:48:40;;;;;;;21.03;17.17;;;10.10;99.90;;;;;;4977718;28;20446;-68
2021/09/23 05:51:07;;;;;;;20.83;16.90;;;10.10;99.90;;;;;;4977680;28;21011;-68
2021/09/23 05:53:34;;;;;;;18.70;15.60;;;10.10;99.90;;;;;;4978421;28;20451;-69
2021/09/23 05:56:00;;;;;;;20.90;17.60;;;10.10;99.90;;;;;;4978247;28;20461;-69
2021/09/23 05:58:27;;;;;;;19.83;17.73;;;10.10;99.90;;;;;;4978441;28;20482;-67
2021/09/23 06:00:55;;;;;;;19.53;17.37;;;10.10;99.90;;;;;;4977962;28;20949;-67
2021/09/23 06:03:22;;;;;;;19.60;16.90;;;10.10;99.90;;;;;;4978255;28;20454;-67
2021/09/23 06:05:49;;;;;;;18.67;15.80;;;10.20;99.90;;;;;;4977963;28;20459;-67
2021/09/23 06:08:16;;;;;;;15.93;13.70;;;10.30;99.90;;;;;;4977612;28;20968;-67
2021/09/23 06:10:43;;;;;;;18.80;15.80;;;10.60;99.90;;;;;;4977673;28;20478;-67
2021/09/23 06:13:10;;;;;;;16.13;13.97;;;10.70;99.90;;;;;;4978451;28;20465;-67
2021/09/23 06:15:37;;;;;;;19.20;15.30;;;10.80;99.90;;;;;;4977370;28;20938;-67
2021/09/23 06:18:05;;;;;;;14.43;13.03;;;11.20;99.90;;;;;;4977174;28;20482;-67
2021/09/23 06:20:31;;;;;;;15.50;11.87;;;11.70;99.90;;;;;;4977432;28;20850;-67
2021/09/23 06:22:58;;;;;;;14.03;9.77;;;12.60;99.90;;;;;;4977974;28;20462;-68
2021/09/23 06:25:25;;;;;;;11.93;10.83;;;13.40;99.90;;;;;;4977703;28;20463;-68
2021/09/23 06:27:52;;;;;;;10.30;9.40;;;14.00;99.90;;;;;;4977726;28;20459;-68
2021/09/23 06:30:19;;;;;;;10.77;9.77;;;14.60;99.90;;;;;;4980639;28;20455;-68
2021/09/23 06:32:46;;;;;;;14.73;12.17;;;14.50;99.90;;;;;;4982545;28;20458;-68
2021/09/23 06:35:14;;;;;;;11.33;10.33;;;14.70;99.90;;;;;;4977736;28;20509;-68
2021/09/23 06:37:41;;;;;;;11.47;10.30;;;15.20;99.90;;;;;;4977131;28;20487;-68
2021/09/23 06:40:08;;;;;;;14.20;9.00;;;15.00;99.90;;;;;;4977140;28;20459;-68
2021/09/23 06:42:35;;;;;;;11.60;8.93;;;15.30;99.90;;;;;;4977154;28;20933;-68
2021/09/23 06:45:02;;;;;;;10.10;8.73;;;15.40;99.90;;;;;;4978982;28;20462;-68
2021/09/23 06:47:29;;;;;;;8.90;8.00;;;16.20;99.90;;;;;;4976745;28;20451;-68
2021/09/23 06:49:55;;;;;;;7.50;6.90;;;17.30;99.90;;;;;;4976873;28;20455;-68
2021/09/23 06:52:23;;;;;;;10.00;7.10;;;18.20;99.90;;;;;;4976765;28;20501;-68
2021/09/23 06:54:50;;;;;;;7.57;6.93;;;19.00;99.90;;;;;;4976796;28;20455;-68
2021/09/23 06:57:17;;;;;;;7.23;6.63;;;19.30;99.90;;;;;;4976576;28;20989;-68
2021/09/23 06:59:43;;;;;;;6.17;5.67;;;19.80;99.90;;;;;;4976770;28;20462;-68
2021/09/23 07:02:10;;;;;;;7.40;6.80;;;20.30;99.90;;;;;;4976360;28;20490;-68
2021/09/23 07:04:37;;;;;;;7.43;6.80;;;19.70;99.90;;;;;;4976701;28;20462;-68
2021/09/23 07:07:04;;;;;;;7.77;7.00;;;20.30;99.90;;;;;;4976865;28;20458;-71
2021/09/23 07:09:32;;;;;;;8.07;6.70;;;21.00;99.90;;;;;;4976918;28;20477;-69
2021/09/23 07:12:00;;;;;;;7.10;6.50;;;21.80;99.90;;;;;;4976168;28;20478;-69
2021/09/23 07:14:27;;;;;;;7.53;6.93;;;22.30;99.90;;;;;;4976610;28;20458;-69
2021/09/23 07:16:53;;;;;;;7.67;6.97;;;22.90;99.90;;;;;;4976520;28;20475;-69
2021/09/23 07:19:20;;;;;;;8.30;7.00;;;23.00;98.80;;;;;;4976525;28;20814;-68
2021/09/23 07:21:47;;;;;;;7.73;6.60;;;23.20;96.70;;;;;;4976469;28;20486;-69
2021/09/23 07:24:14;;;;;;;8.70;7.80;;;22.90;96.90;;;;;;4976314;28;20459;-68
2021/09/23 07:26:42;;;;;;;8.33;7.37;;;22.80;96.40;;;;;;4976477;28;20458;-68
2021/09/23 07:29:12;;;;;;;9.00;7.50;;;23.20;97.10;;;;;;4976447;28;20462;-69
2021/09/23 07:31:38;;;;;;;7.67;6.97;;;23.60;95.90;;;;;;4975635;28;20570;-69
2021/09/23 07:34:05;;;;;;;7.10;6.50;;;23.80;94.40;;;;;;4975969;28;20443;-69
2021/09/23 07:36:32;;;;;;;8.40;7.50;;;23.90;94.30;;;;;;4976113;28;20450;-69
2021/09/23 07:38:59;;;;;;;10.83;9.00;;;23.90;93.90;;;;;;4976443;28;20481;-69
2021/09/23 07:41:26;;;;;;;8.37;7.47;;;23.80;93.30;;;;;;4976017;28;20502;-69
2021/09/23 07:43:54;;;;;;;8.77;8.07;;;24.10;93.10;;;;;;4975873;28;20481;-69
2021/09/23 07:46:20;;;;;;;9.70;8.77;;;24.60;92.40;;;;;;4976068;28;20945;-69
2021/09/23 07:48:53;;;;;;;8.87;8.23;;;25.00;91.90;;;;;;4975978;28;20466;-69
2021/09/23 07:51:19;;;;;;;9.23;8.43;;;24.90;90.70;;;;;;4975690;28;20470;-69
2021/09/23 07:53:46;;;;;;;9.00;8.30;;;25.00;91.20;;;;;;4975465;28;20458;-69
2021/09/23 07:56:13;;;;;;;10.07;9.17;;;25.30;90.10;;;;;;4975662;28;20454;-69
2021/09/23 07:58:40;;;;;;;8.80;7.90;;;25.30;90.20;;;;;;4975524;28;20475;-70
2021/09/23 08:01:09;;;;;;;8.13;7.53;;;25.60;91.20;;;;;;4975525;28;20483;-69
2021/09/23 08:03:36;;;;;;;9.80;8.50;;;26.00;87.80;;;;;;4975606;28;20446;-69
2021/09/23 08:06:03;;;;;;;9.40;8.50;;;26.80;84.70;;;;;;4975046;28;20787;-69
2021/09/23 08:08:30;;;;;;;8.47;7.87;;;27.30;81.70;;;;;;4975482;28;20454;-69
2021/09/23 08:10:56;;;;;;;9.00;8.40;;;28.00;80.00;;;;;;4975446;28;20558;-70
2021/09/23 08:13:23;;;;;;;7.50;6.90;;;28.00;77.90;;;;;;4975277;28;20458;-70
2021/09/23 08:15:50;;;;;;;10.07;6.67;;;28.40;75.80;;;;;;4975231;28;20794;-70
2021/09/23 08:18:19;;;;;;;8.50;7.23;;;28.20;75.10;;;;;;4975494;28;20482;-69
2021/09/23 08:20:46;;;;;;;7.47;6.70;;;27.80;74.60;;;;;;4975413;28;20474;-69
2021/09/23 08:23:13;;;;;;;7.17;6.57;;;27.80;74.50;;;;;;4977435;28;20454;-69
2021/09/23 08:25:40;;;;;;;7.40;6.60;;;27.00;76.60;;;;;;4978909;28;20470;-70
2021/09/23 08:28:07;;;;;;;7.70;7.10;;;27.40;75.10;;;;;;4979621;28;20473;-69
2021/09/23 08:30:35;;;;;;;8.30;7.50;;;27.50;76.50;;;;;;4979650;28;20534;-70
2021/09/23 08:33:01;;;;;;;8.80;8.00;;;28.20;73.70;;;;;;4979305;28;21056;-70
2021/09/23 08:35:29;;;;;;;8.20;7.50;;;28.90;74.00;;;;;;4979874;28;20485;-70
2021/09/23 08:37:56;;;;;;;8.90;7.00;;;29.00;69.70;;;;;;4979489;28;20501;-69
2021/09/23 08:40:23;;;;;;;11.33;7.20;;;29.30;70.30;;;;;;4979589;28;20446;-69
2021/09/23 08:42:50;;;;;;;8.03;7.27;;;30.20;68.00;;;;;;4979429;28;20455;-70
2021/09/23 08:45:18;;;;;;;8.03;7.33;;;30.90;65.10;;;;;;4979246;28;20459;-70
2021/09/23 08:47:46;;;;;;;8.43;7.63;;;31.10;62.10;;;;;;4987725;28;20473;-70
2021/09/23 08:50:14;;;;;;;8.93;8.03;;;31.20;61.50;;;;;;4989455;28;20517;-70
2021/09/23 08:52:43;;;;;;;7.20;6.70;;;31.40;60.00;;;;;;4987424;28;20513;-70
2021/09/23 08:55:20;;;;;;;8.40;7.70;;;31.40;60.90;;;;;;4987655;28;20848;-70
2021/09/23 08:57:47;;;;;;;8.50;7.70;;;30.50;59.60;;;;;;4980221;28;20470;-69
2021/09/23 09:00:15;;;;;;;8.23;7.50;;;30.70;62.40;;;;;;4979925;28;20461;-68
2021/09/23 09:02:42;;;;;;;8.70;7.90;;;29.60;63.40;;;;;;4979937;28;20438;-67
2021/09/23 09:05:18;;;;;;;7.70;6.87;;;30.10;63.20;;;;;;4978879;28;20450;-67
2021/09/23 09:07:46;;;;;;;7.70;6.97;;;30.70;60.20;;;;;;4979038;28;20466;-67
2021/09/23 09:10:13;;;;;;;9.63;8.30;;;31.10;59.80;;;;;;4978589;28;20461;-68
2021/09/23 09:12:39;;;;;;;7.37;6.67;;;31.70;58.40;;;;;;4978338;28;20454;-68
2021/09/23 09:15:07;;;;;;;8.43;7.17;;;32.20;59.70;;;;;;4978774;28;20461;-68
2021/09/23 09:17:36;;;;;;;10.10;7.27;;;32.60;57.70;;;;;;4979127;28;20454;-70
2021/09/23 09:20:04;;;;;;;8.80;8.00;;;32.60;57.00;;;;;;4978467;28;20980;-70
2021/09/23 09:22:33;;;;;;;7.57;6.63;;;31.70;55.10;;;;;;4978583;28;20523;-68
2021/09/23 09:25:05;;;;;;;6.53;6.00;;;31.30;56.30;;;;;;4978826;28;20458;-68
2021/09/23 09:27:34;;;;;;;8.47;7.70;;;31.30;59.40;;;;;;4978746;28;20447;-68
2021/09/23 09:30:05;;;;;;;8.73;7.80;;;31.90;58.10;;;;;;4978631;28;20454;-68
2021/09/23 09:32:41;;;;;;;8.70;7.70;;;32.70;56.40;;;;;;4978178;28;20475;-69
2021/09/23 09:35:10;;;;;;;8.67;7.13;;;33.10;55.30;;;;;;4978409;28;20924;-69
2021/09/23 09:37:39;;;;;;;8.87;7.97;;;33.50;55.30;;;;;;4978394;28;20459;-69
2021/09/23 09:40:11;;;;;;;7.40;6.70;;;33.80;53.10;;;;;;4978829;28;20452;-69
2021/09/23 09:42:43;;;;;;;7.30;6.80;;;33.90;53.40;;;;;;4978810;28;20445;-69
2021/09/23 09:45:16;;;;;;;7.60;6.73;;;34.20;52.60;;;;;;4978558;28;20475;-69
2021/09/23 09:47:43;;;;;;;8.37;7.53;;;34.20;51.50;;;;;;4978082;28;20856;-69
2021/09/23 09:50:12;;;;;;;7.07;6.37;;;34.30;51.40;;;;;;4978903;28;20487;-68
2021/09/23 09:52:40;;;;;;;6.97;6.33;;;34.60;52.10;;;;;;4977984;28;20985;-69
2021/09/23 09:55:11;;;;;;;7.53;6.70;;;34.70;49.60;;;;;;4978345;28;20822;-69
2021/09/23 09:57:44;;;;;;;7.60;6.80;;;34.50;49.10;;;;;;4978565;28;20466;-69
2021/09/23 10:00:13;;;;;;;8.87;6.80;;;32.80;50.30;;;;;;4978288;28;20438;-69
2021/09/23 10:02:42;;;;;;;11.73;6.30;;;32.60;52.20;;;;;;4977857;28;20462;-68
2021/09/23 10:05:10;;;;;;;7.80;5.63;;;32.80;51.80;;;;;;4982556;28;20457;-68
2021/09/23 10:07:39;;;;;;;6.03;5.07;;;32.80;51.30;;;;;;4978450;28;20458;-68
2021/09/23 10:10:08;;;;;;;7.83;4.97;;;32.20;54.30;;;;;;4978256;28;20451;-68
2021/09/23 10:12:37;;;;;;;6.33;5.73;;;32.20;53.10;;;;;;4978029;28;20806;-69
2021/09/23 10:15:06;;;;;;;7.27;6.20;;;32.30;52.70;;;;;;4977513;28;20968;-68
2021/09/23 10:17:34;;;;;;;5.90;5.40;;;32.50;51.30;;;;;;4977773;28;20458;-68
2021/09/23 10:20:01;;;;;;;8.03;7.10;;;33.00;51.30;;;;;;4978329;28;20478;-69
2021/09/23 10:22:29;;;;;;;6.20;5.70;;;33.50;50.90;;;;;;4977655;28;20993;-68
2021/09/23 10:24:57;;;;;;;7.03;6.33;;;33.50;50.20;;;;;;4977231;28;20802;-68
2021/09/23 10:30:11;;;;;;;7.73;5.63;;;34.10;52.60;;;;;;4977740;28;20458;-69
2021/09/23 10:32:38;;;;;;;6.30;5.67;;;34.10;50.20;;;;;;4977212;28;20454;-69
2021/09/23 10:35:05;;;;;;;7.00;6.30;;;34.20;51.30;;;;;;4977061;28;20455;-69
2021/09/23 10:37:33;;;;;;;7.67;5.20;;;33.40;50.40;;;;;;4976969;28;20458;-68
2021/09/23 10:40:01;;;;;;;6.60;4.90;;;32.50;53.50;;;;;;4976890;28;20993;-68
2021/09/23 10:42:29;;;;;;;5.43;4.93;;;32.00;51.80;;;;;;4977642;28;20474;-68
2021/09/23 10:44:57;;;;;;;6.20;4.30;;;32.60;54.70;;;;;;4979537;28;20450;-68
2021/09/23 10:47:26;;;;;;;5.20;4.80;;;32.40;51.90;;;;;;4976933;28;20480;-68
2021/09/23 10:49:54;;;;;;;4.43;4.13;;;33.10;50.70;;;;;;4976888;28;20518;-68
2021/09/23 10:52:22;;;;;;;5.70;5.07;;;33.60;49.70;;;;;;4976740;28;20481;-68
2021/09/23 10:54:53;;;;;;;8.43;4.97;;;34.00;50.30;;;;;;4976205;28;20459;-68
2021/09/23 10:57:20;;;;;;;4.53;4.20;;;33.50;52.10;;;;;;4976421;28;20813;-68
2021/09/23 10:59:49;;;;;;;5.07;4.30;;;32.80;53.10;;;;;;4976402;28;21020;-68
2021/09/23 11:02:22;;;;;;;7.83;4.47;;;32.30;52.70;;;;;;4981087;28;20483;-68
2021/09/23 11:04:50;;;;;;;4.70;4.20;;;30.20;51.90;;;;;;4976622;28;20447;-68
2021/09/23 11:07:18;;;;;;;4.33;4.00;;;29.90;53.80;;;;;;4976995;28;20952;-68
2021/09/23 11:10:04;;;;;;;4.53;4.13;;;29.40;58.30;;;;;;4976589;28;20818;-68
2021/09/23 11:12:32;;;;;;;6.13;3.90;;;29.40;55.10;;;;;;4978270;28;20537;-68
2021/09/23 11:15:01;;;;;;;5.50;4.17;;;29.10;57.40;;;;;;4977038;28;20458;-68
2021/09/23 11:17:29;;;;;;;5.27;4.43;;;28.40;59.50;;;;;;4976451;28;20535;-68
2021/09/23 11:19:58;;;;;;;6.30;4.73;;;28.10;60.50;;;;;;4977328;28;20485;-68
2021/09/23 11:22:34;;;;;;;4.97;4.30;;;27.50;60.80;;;;;;4976881;28;20487;-69
2021/09/23 11:25:03;;;;;;;4.27;3.87;;;27.60;60.50;;;;;;4976646;28;20438;-68
2021/09/23 11:27:30;;;;;;;6.83;4.37;;;27.30;60.20;;;;;;4984646;28;20454;-69
2021/09/23 11:29:57;;;;;;;6.70;4.23;;;27.70;61.70;;;;;;4977008;28;20435;-69
2021/09/23 11:32:25;;;;;;;4.87;4.47;;;28.00;62.50;;;;;;4976857;28;20557;-68
2021/09/23 11:34:58;;;;;;;9.03;5.03;;;28.10;65.80;;;;;;4976040;28;20459;-67
2021/09/23 11:37:29;;;;;;;4.97;4.57;;;28.20;62.60;;;;;;4975947;28;20439;-67
2021/09/23 11:39:57;;;;;;;4.23;3.73;;;28.40;64.50;;;;;;4975910;28;20471;-67
2021/09/23 11:42:26;;;;;;;4.70;4.30;;;28.10;62.40;;;;;;4975855;28;20486;-67
2021/09/23 11:44:53;;;;;;;5.93;4.10;;;28.40;61.80;;;;;;4976577;28;20459;-67
2021/09/23 11:47:21;;;;;;;3.53;3.00;;;28.30;63.20;;;;;;4975951;28;20458;-67
2021/09/23 11:49:52;;;;;;;5.23;3.73;;;28.40;58.10;;;;;;4976108;28;20818;-68
2021/09/23 11:52:19;;;;;;;5.60;3.70;;;28.40;60.10;;;;;;4976347;28;20486;-66
2021/09/23 11:54:46;;;;;;;5.83;4.13;;;28.40;61.80;;;;;;4976498;28;20957;-68
2021/09/23 11:57:23;;;;;;;9.27;4.27;;;28.30;65.50;;;;;;4976088;28;20447;-68
2021/09/23 11:59:54;;;;;;;4.67;4.23;;;28.00;61.10;;;;;;4976228;28;20469;-67
2021/09/23 12:02:21;;;;;;;5.00;4.20;;;28.00;63.00;;;;;;4976016;28;20486;-67
2021/09/23 12:04:59;;;;;;;6.07;3.63;;;27.90;66.20;;;;;;4976504;28;20447;-67
2021/09/23 12:07:26;;;;;;;3.70;3.40;;;28.00;62.70;;;;;;4977044;28;20449;-67
2021/09/23 12:10:14;;;;;;;4.10;3.70;;;28.10;59.40;;;;;;4976857;28;20848;-67
2021/09/23 12:12:41;;;;;;;3.27;2.97;;;27.90;60.40;;;;;;4976457;28;20439;-67
2021/09/23 12:15:08;;;;;;;4.63;3.07;;;28.00;58.00;;;;;;4975804;28;20940;-66
2021/09/23 12:17:35;;;;;;;3.13;2.80;;;27.90;55.20;;;;;;4976068;28;20455;-67
2021/09/23 12:20:04;;;;;;;3.83;3.53;;;27.80;54.30;;;;;;4976495;28;20482;-69
2021/09/23 12:22:33;;;;;;;10.83;4.27;;;27.10;62.70;;;;;;4975867;28;20474;-68
2021/09/23 12:25:00;;;;;;;6.53;4.00;;;26.60;67.60;;;;;;4975245;28;20477;-68
2021/09/23 12:27:28;;;;;;;5.30;4.10;;;26.70;67.70;;;;;;4975617;28;20450;-68
2021/09/23 12:29:56;;;;;;;4.43;3.97;;;26.90;69.60;;;;;;4976096;28;20541;-67
2021/09/23 12:32:33;;;;;;;4.43;4.13;;;27.20;69.10;;;;;;4975444;28;20582;-68
2021/09/23 12:35:00;;;;;;;4.47;4.07;;;27.30;69.60;;;;;;4975618;28;20477;-68
2021/09/23 12:37:28;;;;;;;5.30;4.43;;;27.60;65.10;;;;;;4975281;28;20965;-68
2021/09/23 12:39:55;;;;;;;5.23;3.93;;;27.50;65.60;;;;;;4975412;28;20478;-67
2021/09/23 12:42:23;;;;;;;5.73;4.27;;;27.50;65.30;;;;;;4975037;28;20834;-67
2021/09/23 12:44:56;;;;;;;4.20;3.80;;;26.90;66.10;;;;;;4975008;28;20823;-67
2021/09/23 12:47:24;;;;;;;4.90;3.87;;;27.10;67.90;;;;;;4974878;28;20454;-68
2021/09/23 12:49:59;;;;;;;4.70;4.20;;;27.20;65.20;;;;;;4974885;28;20462;-69
2021/09/23 12:52:30;;;;;;;7.30;3.80;;;27.20;65.20;;;;;;4975152;28;20938;-67
2021/09/23 12:54:59;;;;;;;3.50;3.20;;;27.30;63.20;;;;;;4975144;28;20439;-68
2021/09/23 12:57:27;;;;;;;4.03;3.73;;;27.10;66.00;;;;;;4974609;28;20842;-67
2021/09/23 13:00:09;;;;;;;6.50;3.57;;;26.90;66.60;;;;;;4975266;28;20486;-68
2021/09/23 13:02:36;;;;;;;4.13;3.93;;;26.90;66.60;;;;;;4974878;28;20479;-68
2021/09/23 13:05:06;;;;;;;4.27;3.87;;;27.00;66.60;;;;;;4978591;28;20435;-68
2021/09/23 13:07:42;;;;;;;4.67;4.13;;;27.00;67.50;;;;;;4975005;28;20439;-68
2021/09/23 13:10:11;;;;;;;3.50;2.93;;;27.20;72.60;;;;;;4978376;28;20481;-69
2021/09/23 13:12:40;;;;;;;4.03;3.10;;;27.40;67.00;;;;;;4978784;28;20466;-68
2021/09/23 13:15:19;;;;;;;3.53;3.00;;;27.50;64.90;;;;;;4978604;28;20540;-68
2021/09/23 13:17:59;;;;;;;3.33;3.13;;;27.50;69.20;;;;;;4978595;28;20910;-68
2021/09/23 13:20:26;;;;;;;3.63;3.10;;;27.10;63.80;;;;;;4978369;28;20467;-68
2021/09/23 13:22:55;;;;;;;3.83;2.93;;;26.70;65.00;;;;;;4978719;28;20463;-68
2021/09/23 13:25:21;;;;;;;3.27;3.07;;;26.70;67.70;;;;;;4978679;28;20463;-68
2021/09/23 13:27:48;;;;;;;3.23;2.90;;;27.00;69.00;;;;;;4978327;28;20458;-68
2021/09/23 13:30:15;;;;;;;5.00;3.30;;;27.20;65.50;;;;;;4978283;28;20453;-68
2021/09/23 13:32:43;;;;;;;3.20;3.00;;;27.00;65.10;;;;;;4978865;28;20461;-68
2021/09/23 13:35:12;;;;;;;8.27;3.37;;;27.30;65.80;;;;;;4978159;28;20458;-68
2021/09/23 13:37:39;;;;;;;2.40;2.30;;;27.00;64.50;;;;;;4977799;28;20459;-69
2021/09/23 13:40:09;;;;;;;3.97;3.57;;;26.90;66.80;;;;;;4977513;28;21011;-69
2021/09/23 13:42:36;;;;;;;3.50;2.97;;;27.10;67.50;;;;;;4977954;28;20482;-69
2021/09/23 13:45:05;;;;;;;3.70;3.30;;;27.40;66.90;;;;;;4978109;28;20439;-68
2021/09/23 13:47:32;;;;;;;3.57;3.30;;;27.50;65.30;;;;;;4977855;28;20455;-69
2021/09/23 13:49:59;;;;;;;3.67;3.17;;;27.70;64.20;;;;;;4977603;28;20509;-69
2021/09/23 13:52:26;;;;;;;6.33;3.67;;;27.50;65.20;;;;;;4977832;28;20800;-69
2021/09/23 13:54:54;;;;;;;3.30;3.10;;;27.60;63.90;;;;;;4978597;28;20528;-68
2021/09/23 13:57:22;;;;;;;3.90;3.53;;;27.60;64.40;;;;;;4979643;28;20458;-67
2021/09/23 13:59:50;;;;;;;3.83;3.27;;;27.40;66.20;;;;;;4978705;28;20790;-67
2021/09/23 14:02:16;;;;;;;4.07;3.37;;;27.40;67.00;;;;;;4977140;28;20577;-67
2021/09/23 14:04:43;;;;;;;4.00;3.57;;;27.50;66.20;;;;;;4977498;28;20447;-67
2021/09/23 14:07:10;;;;;;;3.97;3.50;;;27.70;66.10;;;;;;4977502;28;20498;-67
2021/09/23 14:09:37;;;;;;;5.67;3.10;;;27.50;65.30;;;;;;4977007;28;20946;-67
2021/09/23 14:12:03;;;;;;;4.07;3.00;;;27.30;68.80;;;;;;4977324;28;20830;-67
2021/09/23 14:14:31;;;;;;;4.03;3.50;;;27.40;68.00;;;;;;4977846;28;20459;-67
2021/09/23 14:16:58;;;;;;;4.53;4.13;;;27.30;67.10;;;;;;4977715;28;20455;-67
2021/09/23 14:19:35;;;;;;;;;;;;;;;;;;;;;
2021/09/23 14:22:02;;;;;;;3.30;3.10;;;27.20;66.50;;;;;;4983182;28;20537;-67
2021/09/23 14:24:29;;;;;;;8.10;3.60;;;27.20;65.90;;;;;;4982936;28;20977;-67
2021/09/23 14:26:55;;;;;;;3.83;3.30;;;27.00;66.00;;;;;;4981368;28;20459;-71
2021/09/23 14:29:22;;;;;;;3.60;3.30;;;26.90;65.20;;;;;;4977645;28;20482;-71
2021/09/23 14:31:50;;;;;;;3.67;2.90;;;26.90;63.20;;;;;;4977542;28;20474;-71
2021/09/23 14:34:18;;;;;;;5.13;3.57;;;26.80;63.50;;;;;;4977159;28;20958;-73
2021/09/23 14:36:45;;;;;;;4.77;3.60;;;26.80;62.90;;;;;;4977935;28;20541;-72
2021/09/23 14:39:12;;;;;;;3.60;3.40;;;26.60;63.40;;;;;;4978608;28;20464;-71
2021/09/23 14:41:39;;;;;;;3.10;2.83;;;26.50;63.70;;;;;;4977163;28;20479;-70
2021/09/23 14:44:06;;;;;;;3.63;2.90;;;26.30;60.20;;;;;;4977928;28;20458;-70
2021/09/23 14:46:34;;;;;;;5.27;3.10;;;26.40;63.80;;;;;;4978710;28;20458;-72
2021/09/23 14:49:02;;;;;;;3.20;3.00;;;26.30;62.40;;;;;;4977676;28;20454;-70
2021/09/23 14:51:29;;;;;;;3.57;3.17;;;26.30;62.30;;;;;;4978679;28;20477;-71
2021/09/23 14:53:55;;;;;;;3.17;2.97;;;26.40;59.20;;;;;;4977987;28;20807;-72
2021/09/23 14:56:22;;;;;;;3.53;3.23;;;26.50;60.30;;;;;;4978011;28;20456;-72
2021/09/23 14:58:49;;;;;;;3.77;3.33;;;26.50;60.90;;;;;;4977698;28;20455;-72
2021/09/23 15:01:17;;;;;;;3.10;2.90;;;26.40;60.70;;;;;;4976940;28;20494;-72
2021/09/23 15:03:45;;;;;;;3.37;3.17;;;26.30;59.60;;;;;;4977730;28;20514;-73
2021/09/23 15:06:13;;;;;;;3.13;2.80;;;26.40;59.90;;;;;;4976482;28;20997;-72
2021/09/23 15:08:41;;;;;;;2.73;2.53;;;26.30;59.10;;;;;;4976656;28;20461;-72
2021/09/23 15:11:13;;;;;;;3.40;2.70;;;26.20;57.70;;;;;;4976516;28;20466;-72
2021/09/23 15:13:40;;;;;;;3.40;3.10;;;26.10;58.50;;;;;;4976340;28;20906;-71
2021/09/23 15:16:09;;;;;;;3.17;2.77;;;26.10;58.60;;;;;;4976378;28;20851;-71
2021/09/23 15:18:36;;;;;;;2.87;2.77;;;25.90;57.70;;;;;;4976313;28;20450;-71
2021/09/23 15:21:03;;;;;;;3.00;2.90;;;25.90;58.60;;;;;;4976194;28;21091;-72
2021/09/23 15:23:31;;;;;;;3.03;2.80;;;25.80;58.80;;;;;;4976243;28;20458;-72
2021/09/23 15:25:58;;;;;;;3.60;3.30;;;25.70;58.00;;;;;;4976161;28;20454;-71
2021/09/23 15:28:26;;;;;;;3.03;2.83;;;25.70;58.20;;;;;;4975986;28;20454;-71
2021/09/23 15:30:53;;;;;;;3.07;2.87;;;25.70;57.60;;;;;;4976294;28;20478;-71
2021/09/23 15:33:20;;;;;;;3.00;2.90;;;25.60;56.50;;;;;;4976883;28;20816;-71
2021/09/23 15:35:46;;;;;;;2.70;2.60;;;25.40;56.50;;;;;;4976794;28;20463;-71
2021/09/23 15:38:13;;;;;;;3.30;3.10;;;25.30;56.00;;;;;;4975723;28;20450;-70
2021/09/23 15:40:41;;;;;;;4.30;3.30;;;25.10;57.60;;;;;;4976688;28;20494;-70
2021/09/23 15:43:09;;;;;;;3.17;2.87;;;25.00;59.30;;;;;;4976407;28;20454;-70
2021/09/23 15:45:36;;;;;;;3.20;3.00;;;24.90;61.50;;;;;;4976657;28;20856;-70
2021/09/23 15:48:03;;;;;;;2.67;2.53;;;24.70;59.80;;;;;;4976649;28;20454;-70
2021/09/23 15:50:30;;;;;;;3.00;2.80;;;24.50;59.20;;;;;;4976463;28;20455;-71
2021/09/23 15:52:59;;;;;;;3.40;2.43;;;24.40;60.00;;;;;;4977199;28;20458;-70
2021/09/23 15:55:26;;;;;;;3.67;2.80;;;24.30;63.00;;;;;;4976014;28;20458;-71
2021/09/23 15:57:54;;;;;;;3.73;3.20;;;24.30;62.20;;;;;;4976758;28;20451;-70
2021/09/23 16:00:22;;;;;;;2.93;2.83;;;24.20;62.60;;;;;;4977102;28;20966;-70
2021/09/23 16:02:54;;;;;;;3.17;2.97;;;23.90;59.40;;;;;;4976228;28;20451;-69
2021/09/23 16:05:22;;;;;;;3.37;3.17;;;23.90;62.60;;;;;;4976272;28;20494;-69
2021/09/23 16:07:49;;;;;;;4.70;2.87;;;23.80;65.00;;;;;;4975732;28;20958;-69
2021/09/23 16:10:17;;;;;;;2.60;2.50;;;23.60;59.90;;;;;;4975765;28;20458;-70
2021/09/23 16:12:43;;;;;;;3.47;3.27;;;23.50;60.30;;;;;;4975419;28;20513;-68
2021/09/23 16:15:13;;;;;;;3.13;2.93;;;23.50;65.20;;;;;;4975270;28;20529;-68
2021/09/23 16:17:39;;;;;;;5.03;4.20;;;23.40;65.50;;;;;;4975113;28;20454;-67
2021/09/23 16:20:08;;;;;;;3.40;3.10;;;23.40;69.60;;;;;;4976001;28;20813;-69
2021/09/23 16:22:34;;;;;;;3.47;3.17;;;23.30;65.80;;;;;;4975641;28;20510;-69
2021/09/23 16:25:01;;;;;;;4.77;3.17;;;23.20;65.70;;;;;;4975306;28;20446;-69
2021/09/23 16:27:28;;;;;;;3.43;3.23;;;23.20;66.20;;;;;;4975404;28;20801;-69
2021/09/23 16:29:55;;;;;;;4.00;3.60;;;23.10;66.10;;;;;;4975356;28;20466;-69
2021/09/23 16:32:23;;;;;;;3.40;3.20;;;23.00;67.30;;;;;;4975029;28;20478;-69
2021/09/23 16:34:49;;;;;;;3.57;3.37;;;22.90;67.90;;;;;;4974727;28;20462;-69
2021/09/23 16:37:16;;;;;;;3.80;3.50;;;22.80;68.90;;;;;;4975401;28;20458;-69
2021/09/23 16:39:43;;;;;;;3.63;3.43;;;22.70;69.10;;;;;;4974959;28;20974;-69
2021/09/23 16:42:09;;;;;;;3.57;3.27;;;22.60;69.70;;;;;;4975192;28;20494;-69
2021/09/23 16:44:36;;;;;;;3.33;3.13;;;22.50;69.50;;;;;;4978159;28;20462;-69
2021/09/23 16:47:03;;;;;;;3.77;3.40;;;22.40;69.60;;;;;;4979210;28;20454;-68
2021/09/23 16:49:31;;;;;;;4.63;4.00;;;22.30;70.30;;;;;;4978771;28;20808;-69